Terminal Aerodrome Forecast
Issued by NWS Albany, NY

Home | Current Version | Previous Version | Text Only | Print | Product List | Glossary On
Versions: 1 2 3 4 5 6 7 8 9 10 11 12 13 14 15 16 17 18 19 20 21 22 23 24 25 26 27 28
000
FTUS41 KALY 260500
TAFPOU
TAF
KPOU 260538Z 2606/2706 02005KT P6SM BKN100 OVC200
     FM261100 03005KT P6SM BKN035 OVC045
     FM261400 03005KT P6SM VCSH BKN025 OVC035
     FM261600 03007KT 4SM -SN BR SCT010 OVC020
     FM261800 03008KT 1 1/2SM -SN BR OVC009
     FM262300 02009G15KT 3/4SM -SN BR VV006=

USA.gov is the U.S. government's official web portal to all federal, state and local government web resources and services.